sensor_id;sensor_type;location;lat;lon;timestamp;P1;durP1;ratioP1;P2;durP2;ratioP2
5807;SDS011;2930;42.678;23.312;2023-01-10T00:00:26;8.03;;;4.50;;
5807;SDS011;2930;42.678;23.312;2023-01-10T00:03:02;5.63;;;4.27;;
5807;SDS011;2930;42.678;23.312;2023-01-10T00:05:30;6.47;;;4.20;;
5807;SDS011;2930;42.678;23.312;2023-01-10T00:07:57;5.13;;;3.77;;
5807;SDS011;2930;42.678;23.312;2023-01-10T00:10:28;9.67;;;4.30;;
5807;SDS011;2930;42.678;23.312;2023-01-10T00:12:55;4.53;;;3.83;;
5807;SDS011;2930;42.678;23.312;2023-01-10T00:15:39;4.67;;;3.43;;
5807;SDS011;2930;42.678;23.312;2023-01-10T00:18:05;4.13;;;3.70;;
5807;SDS011;2930;42.678;23.312;2023-01-10T00:20:31;9.40;;;4.20;;
5807;SDS011;2930;42.678;23.312;2023-01-10T00:22:56;5.37;;;3.80;;
5807;SDS011;2930;42.678;23.312;2023-01-10T00:25:22;7.60;;;4.67;;
5807;SDS011;2930;42.678;23.312;2023-01-10T00:27:48;7.13;;;3.87;;
5807;SDS011;2930;42.678;23.312;2023-01-10T00:30:36;5.53;;;4.30;;
5807;SDS011;2930;42.678;23.312;2023-01-10T00:33:03;4.37;;;3.87;;
5807;SDS011;2930;42.678;23.312;2023-01-10T00:35:29;5.17;;;4.43;;
5807;SDS011;2930;42.678;23.312;2023-01-10T00:37:54;5.50;;;3.80;;
5807;SDS011;2930;42.678;23.312;2023-01-10T00:40:25;4.80;;;3.63;;
5807;SDS011;2930;42.678;23.312;2023-01-10T00:42:51;4.63;;;3.27;;
5807;SDS011;2930;42.678;23.312;2023-01-10T00:45:35;3.70;;;3.23;;
5807;SDS011;2930;42.678;23.312;2023-01-10T00:48:00;4.10;;;3.07;;
5807;SDS011;2930;42.678;23.312;2023-01-10T00:50:26;4.57;;;3.57;;
5807;SDS011;2930;42.678;23.312;2023-01-10T00:52:52;6.27;;;2.97;;
5807;SDS011;2930;42.678;23.312;2023-01-10T00:55:17;4.93;;;3.40;;
5807;SDS011;2930;42.678;23.312;2023-01-10T00:57:43;5.03;;;3.47;;
5807;SDS011;2930;42.678;23.312;2023-01-10T01:00:09;4.07;;;3.00;;
5807;SDS011;2930;42.678;23.312;2023-01-10T01:02:36;5.00;;;3.40;;
5807;SDS011;2930;42.678;23.312;2023-01-10T01:05:02;7.43;;;4.20;;
5807;SDS011;2930;42.678;23.312;2023-01-10T01:07:28;4.00;;;3.03;;
5807;SDS011;2930;42.678;23.312;2023-01-10T01:09:54;4.70;;;3.33;;
5807;SDS011;2930;42.678;23.312;2023-01-10T01:12:38;5.10;;;3.43;;
5807;SDS011;2930;42.678;23.312;2023-01-10T01:15:04;3.93;;;3.27;;
5807;SDS011;2930;42.678;23.312;2023-01-10T01:17:30;5.70;;;3.40;;
5807;SDS011;2930;42.678;23.312;2023-01-10T01:19:55;4.53;;;3.53;;
5807;SDS011;2930;42.678;23.312;2023-01-10T01:22:21;7.87;;;3.53;;
5807;SDS011;2930;42.678;23.312;2023-01-10T01:24:47;3.97;;;3.13;;
5807;SDS011;2930;42.678;23.312;2023-01-10T01:27:12;3.77;;;2.97;;
5807;SDS011;2930;42.678;23.312;2023-01-10T01:29:38;4.53;;;3.70;;
5807;SDS011;2930;42.678;23.312;2023-01-10T01:32:04;3.00;;;2.80;;
5807;SDS011;2930;42.678;23.312;2023-01-10T01:34:29;9.53;;;4.33;;
5807;SDS011;2930;42.678;23.312;2023-01-10T01:36:55;4.93;;;3.40;;
5807;SDS011;2930;42.678;23.312;2023-01-10T01:39:22;7.60;;;3.50;;
5807;SDS011;2930;42.678;23.312;2023-01-10T01:41:48;3.43;;;3.13;;
5807;SDS011;2930;42.678;23.312;2023-01-10T01:44:28;3.13;;;2.83;;
5807;SDS011;2930;42.678;23.312;2023-01-10T01:47:04;8.07;;;3.70;;
5807;SDS011;2930;42.678;23.312;2023-01-10T01:49:33;4.60;;;3.70;;
5807;SDS011;2930;42.678;23.312;2023-01-10T01:52:04;3.73;;;3.07;;
5807;SDS011;2930;42.678;23.312;2023-01-10T01:54:39;4.70;;;3.33;;
5807;SDS011;2930;42.678;23.312;2023-01-10T01:57:06;3.30;;;3.00;;
5807;SDS011;2930;42.678;23.312;2023-01-10T01:59:37;3.40;;;3.10;;
5807;SDS011;2930;42.678;23.312;2023-01-10T02:02:08;4.07;;;2.90;;
5807;SDS011;2930;42.678;23.312;2023-01-10T02:04:52;6.17;;;3.87;;
5807;SDS011;2930;42.678;23.312;2023-01-10T02:07:34;6.60;;;3.60;;
5807;SDS011;2930;42.678;23.312;2023-01-10T02:12:28;3.50;;;3.13;;
5807;SDS011;2930;42.678;23.312;2023-01-10T02:14:55;6.43;;;3.73;;
5807;SDS011;2930;42.678;23.312;2023-01-10T02:17:22;3.33;;;3.13;;
5807;SDS011;2930;42.678;23.312;2023-01-10T02:20:02;4.33;;;3.77;;
5807;SDS011;2930;42.678;23.312;2023-01-10T02:43:16;3.50;;;3.23;;
5807;SDS011;2930;42.678;23.312;2023-01-10T02:46:07;4.27;;;2.50;;
5807;SDS011;2930;42.678;23.312;2023-01-10T02:48:48;3.77;;;3.30;;
5807;SDS011;2930;42.678;23.312;2023-01-10T02:51:19;8.13;;;3.50;;
5807;SDS011;2930;42.678;23.312;2023-01-10T03:01:59;3.73;;;2.70;;
5807;SDS011;2930;42.678;23.312;2023-01-10T03:07:55;3.33;;;3.20;;
5807;SDS011;2930;42.678;23.312;2023-01-10T03:10:29;7.70;;;3.77;;
5807;SDS011;2930;42.678;23.312;2023-01-10T03:13:07;4.13;;;2.80;;
5807;SDS011;2930;42.678;23.312;2023-01-10T03:15:39;6.47;;;2.90;;
5807;SDS011;2930;42.678;23.312;2023-01-10T03:18:07;6.10;;;3.50;;
5807;SDS011;2930;42.678;23.312;2023-01-10T03:20:39;4.90;;;3.37;;
5807;SDS011;2930;42.678;23.312;2023-01-10T03:23:07;2.33;;;2.17;;
5807;SDS011;2930;42.678;23.312;2023-01-10T03:25:35;3.70;;;3.40;;
5807;SDS011;2930;42.678;23.312;2023-01-10T03:28:04;3.50;;;3.20;;
5807;SDS011;2930;42.678;23.312;2023-01-10T03:33:03;3.33;;;2.93;;
5807;SDS011;2930;42.678;23.312;2023-01-10T03:35:35;3.10;;;2.77;;
5807;SDS011;2930;42.678;23.312;2023-01-10T03:38:28;2.60;;;2.10;;
5807;SDS011;2930;42.678;23.312;2023-01-10T03:41:11;5.27;;;3.57;;
5807;SDS011;2930;42.678;23.312;2023-01-10T03:43:46;3.87;;;2.67;;
5807;SDS011;2930;42.678;23.312;2023-01-10T03:46:58;2.93;;;2.73;;
5807;SDS011;2930;42.678;23.312;2023-01-10T03:49:29;3.80;;;3.13;;
5807;SDS011;2930;42.678;23.312;2023-01-10T03:51:57;5.67;;;3.50;;
5807;SDS011;2930;42.678;23.312;2023-01-10T03:54:23;2.80;;;2.53;;
5807;SDS011;2930;42.678;23.312;2023-01-10T03:56:50;3.13;;;2.83;;
5807;SDS011;2930;42.678;23.312;2023-01-10T03:59:19;2.77;;;2.57;;
5807;SDS011;2930;42.678;23.312;2023-01-10T04:01:48;4.57;;;3.63;;
5807;SDS011;2930;42.678;23.312;2023-01-10T04:04:14;3.73;;;2.33;;
5807;SDS011;2930;42.678;23.312;2023-01-10T04:06:40;3.10;;;2.87;;
5807;SDS011;2930;42.678;23.312;2023-01-10T04:09:06;3.00;;;2.60;;
5807;SDS011;2930;42.678;23.312;2023-01-10T04:11:32;2.67;;;2.47;;
5807;SDS011;2930;42.678;23.312;2023-01-10T04:13:58;4.47;;;3.43;;
5807;SDS011;2930;42.678;23.312;2023-01-10T04:16:23;4.67;;;2.87;;
5807;SDS011;2930;42.678;23.312;2023-01-10T04:18:49;6.13;;;3.37;;
5807;SDS011;2930;42.678;23.312;2023-01-10T04:21:15;3.47;;;3.17;;
5807;SDS011;2930;42.678;23.312;2023-01-10T04:23:40;6.70;;;3.10;;
5807;SDS011;2930;42.678;23.312;2023-01-10T04:26:06;3.67;;;2.73;;
5807;SDS011;2930;42.678;23.312;2023-01-10T04:28:32;3.33;;;3.13;;
5807;SDS011;2930;42.678;23.312;2023-01-10T04:30:58;3.53;;;3.23;;
5807;SDS011;2930;42.678;23.312;2023-01-10T04:33:23;5.67;;;3.90;;
5807;SDS011;2930;42.678;23.312;2023-01-10T04:35:49;4.60;;;3.00;;
5807;SDS011;2930;42.678;23.312;2023-01-10T04:38:16;5.20;;;3.50;;
5807;SDS011;2930;42.678;23.312;2023-01-10T04:40:42;4.30;;;3.67;;
5807;SDS011;2930;42.678;23.312;2023-01-10T04:43:08;4.10;;;3.00;;
5807;SDS011;2930;42.678;23.312;2023-01-10T04:45:35;4.10;;;3.13;;
5807;SDS011;2930;42.678;23.312;2023-01-10T04:48:01;4.20;;;3.40;;
5807;SDS011;2930;42.678;23.312;2023-01-10T04:50:27;3.13;;;2.67;;
5807;SDS011;2930;42.678;23.312;2023-01-10T04:52:53;3.97;;;2.97;;
5807;SDS011;2930;42.678;23.312;2023-01-10T04:55:18;4.80;;;2.47;;
5807;SDS011;2930;42.678;23.312;2023-01-10T04:57:44;3.20;;;2.90;;
5807;SDS011;2930;42.678;23.312;2023-01-10T05:00:11;5.27;;;2.93;;
5807;SDS011;2930;42.678;23.312;2023-01-10T05:02:37;4.20;;;3.37;;
5807;SDS011;2930;42.678;23.312;2023-01-10T05:05:08;4.47;;;3.20;;
5807;SDS011;2930;42.678;23.312;2023-01-10T05:07:34;5.07;;;3.37;;
5807;SDS011;2930;42.678;23.312;2023-01-10T05:10:00;3.63;;;3.17;;
5807;SDS011;2930;42.678;23.312;2023-01-10T05:12:26;4.27;;;3.67;;
5807;SDS011;2930;42.678;23.312;2023-01-10T05:14:52;3.93;;;3.43;;
5807;SDS011;2930;42.678;23.312;2023-01-10T05:17:17;3.90;;;3.47;;
5807;SDS011;2930;42.678;23.312;2023-01-10T05:19:43;7.60;;;3.43;;
5807;SDS011;2930;42.678;23.312;2023-01-10T05:22:09;11.27;;;3.77;;
5807;SDS011;2930;42.678;23.312;2023-01-10T05:24:34;4.47;;;3.90;;
5807;SDS011;2930;42.678;23.312;2023-01-10T05:27:00;4.97;;;3.20;;
5807;SDS011;2930;42.678;23.312;2023-01-10T05:29:26;4.27;;;3.33;;
5807;SDS011;2930;42.678;23.312;2023-01-10T05:31:51;3.73;;;3.43;;
5807;SDS011;2930;42.678;23.312;2023-01-10T05:34:17;7.57;;;4.03;;
5807;SDS011;2930;42.678;23.312;2023-01-10T05:36:43;4.23;;;3.47;;
5807;SDS011;2930;42.678;23.312;2023-01-10T05:39:09;5.33;;;2.57;;
5807;SDS011;2930;42.678;23.312;2023-01-10T05:41:34;4.80;;;3.50;;
5807;SDS011;2930;42.678;23.312;2023-01-10T05:44:00;3.37;;;3.07;;
5807;SDS011;2930;42.678;23.312;2023-01-10T05:46:26;5.93;;;3.17;;
5807;SDS011;2930;42.678;23.312;2023-01-10T05:48:52;3.57;;;3.37;;
5807;SDS011;2930;42.678;23.312;2023-01-10T05:51:17;3.77;;;2.70;;
5807;SDS011;2930;42.678;23.312;2023-01-10T05:53:43;3.93;;;3.00;;
5807;SDS011;2930;42.678;23.312;2023-01-10T05:56:08;3.80;;;3.30;;
5807;SDS011;2930;42.678;23.312;2023-01-10T05:58:34;3.70;;;3.40;;
5807;SDS011;2930;42.678;23.312;2023-01-10T06:01:00;4.33;;;3.40;;
5807;SDS011;2930;42.678;23.312;2023-01-10T06:03:25;3.20;;;2.60;;
5807;SDS011;2930;42.678;23.312;2023-01-10T06:05:52;3.40;;;3.10;;
5807;SDS011;2930;42.678;23.312;2023-01-10T06:08:18;3.87;;;3.37;;
5807;SDS011;2930;42.678;23.312;2023-01-10T06:10:44;4.60;;;2.77;;
5807;SDS011;2930;42.678;23.312;2023-01-10T06:13:10;3.87;;;3.17;;
5807;SDS011;2930;42.678;23.312;2023-01-10T06:15:36;3.77;;;3.40;;
5807;SDS011;2930;42.678;23.312;2023-01-10T06:18:01;4.43;;;3.43;;
5807;SDS011;2930;42.678;23.312;2023-01-10T06:20:27;2.97;;;2.70;;
5807;SDS011;2930;42.678;23.312;2023-01-10T06:22:53;4.87;;;3.47;;
5807;SDS011;2930;42.678;23.312;2023-01-10T06:25:19;2.97;;;2.73;;
5807;SDS011;2930;42.678;23.312;2023-01-10T06:27:44;3.33;;;3.07;;
5807;SDS011;2930;42.678;23.312;2023-01-10T06:30:10;3.43;;;2.90;;
5807;SDS011;2930;42.678;23.312;2023-01-10T06:32:37;4.70;;;3.83;;
5807;SDS011;2930;42.678;23.312;2023-01-10T06:35:04;3.33;;;3.03;;
5807;SDS011;2930;42.678;23.312;2023-01-10T06:37:30;5.03;;;3.00;;
5807;SDS011;2930;42.678;23.312;2023-01-10T06:39:56;4.20;;;3.10;;
5807;SDS011;2930;42.678;23.312;2023-01-10T06:42:21;4.03;;;2.93;;
5807;SDS011;2930;42.678;23.312;2023-01-10T06:44:47;3.77;;;2.73;;
5807;SDS011;2930;42.678;23.312;2023-01-10T06:47:13;3.77;;;2.80;;
5807;SDS011;2930;42.678;23.312;2023-01-10T06:49:38;5.23;;;4.10;;
5807;SDS011;2930;42.678;23.312;2023-01-10T06:52:04;3.90;;;3.50;;
5807;SDS011;2930;42.678;23.312;2023-01-10T06:54:30;3.70;;;3.40;;
5807;SDS011;2930;42.678;23.312;2023-01-10T06:56:55;3.57;;;3.27;;
5807;SDS011;2930;42.678;23.312;2023-01-10T06:59:21;3.67;;;3.10;;
5807;SDS011;2930;42.678;23.312;2023-01-10T07:01:47;3.10;;;2.87;;
5807;SDS011;2930;42.678;23.312;2023-01-10T07:04:12;3.83;;;3.23;;
5807;SDS011;2930;42.678;23.312;2023-01-10T07:06:38;3.73;;;3.43;;
5807;SDS011;2930;42.678;23.312;2023-01-10T07:09:05;5.07;;;3.83;;
5807;SDS011;2930;42.678;23.312;2023-01-10T07:11:32;3.03;;;2.80;;
5807;SDS011;2930;42.678;23.312;2023-01-10T07:13:59;5.23;;;3.50;;
5807;SDS011;2930;42.678;23.312;2023-01-10T07:16:25;4.33;;;3.23;;
5807;SDS011;2930;42.678;23.312;2023-01-10T07:18:52;4.80;;;3.40;;
5807;SDS011;2930;42.678;23.312;2023-01-10T07:21:18;6.07;;;4.27;;
5807;SDS011;2930;42.678;23.312;2023-01-10T07:23:48;7.47;;;4.40;;
5807;SDS011;2930;42.678;23.312;2023-01-10T07:26:15;4.80;;;4.30;;
5807;SDS011;2930;42.678;23.312;2023-01-10T07:28:52;3.70;;;3.50;;
5807;SDS011;2930;42.678;23.312;2023-01-10T07:31:18;5.20;;;3.70;;
5807;SDS011;2930;42.678;23.312;2023-01-10T07:33:46;5.20;;;4.50;;
5807;SDS011;2930;42.678;23.312;2023-01-10T07:36:12;3.93;;;3.57;;
5807;SDS011;2930;42.678;23.312;2023-01-10T07:38:38;6.63;;;3.80;;
5807;SDS011;2930;42.678;23.312;2023-01-10T07:41:04;4.67;;;3.83;;
5807;SDS011;2930;42.678;23.312;2023-01-10T07:43:30;5.77;;;3.27;;
5807;SDS011;2930;42.678;23.312;2023-01-10T07:45:57;6.23;;;3.77;;
5807;SDS011;2930;42.678;23.312;2023-01-10T07:48:23;4.33;;;3.50;;
5807;SDS011;2930;42.678;23.312;2023-01-10T07:50:49;6.20;;;3.67;;
5807;SDS011;2930;42.678;23.312;2023-01-10T07:53:23;3.80;;;3.47;;
5807;SDS011;2930;42.678;23.312;2023-01-10T07:55:49;4.33;;;3.00;;
5807;SDS011;2930;42.678;23.312;2023-01-10T07:58:15;5.63;;;3.60;;
5807;SDS011;2930;42.678;23.312;2023-01-10T08:00:40;3.93;;;3.07;;
5807;SDS011;2930;42.678;23.312;2023-01-10T08:03:08;5.87;;;3.80;;
5807;SDS011;2930;42.678;23.312;2023-01-10T08:05:34;6.13;;;3.77;;
5807;SDS011;2930;42.678;23.312;2023-01-10T08:08:07;8.67;;;4.70;;
5807;SDS011;2930;42.678;23.312;2023-01-10T08:10:34;4.87;;;4.20;;
5807;SDS011;2930;42.678;23.312;2023-01-10T08:13:00;4.70;;;4.30;;
5807;SDS011;2930;42.678;23.312;2023-01-10T08:15:27;3.80;;;3.47;;
5807;SDS011;2930;42.678;23.312;2023-01-10T08:17:54;3.77;;;3.43;;
5807;SDS011;2930;42.678;23.312;2023-01-10T08:20:23;4.10;;;3.60;;
5807;SDS011;2930;42.678;23.312;2023-01-10T08:22:50;5.00;;;3.30;;
5807;SDS011;2930;42.678;23.312;2023-01-10T08:25:16;4.33;;;3.70;;
5807;SDS011;2930;42.678;23.312;2023-01-10T08:27:42;5.70;;;2.93;;
5807;SDS011;2930;42.678;23.312;2023-01-10T08:30:08;5.63;;;4.10;;
5807;SDS011;2930;42.678;23.312;2023-01-10T08:32:35;5.97;;;4.50;;
5807;SDS011;2930;42.678;23.312;2023-01-10T08:35:01;6.90;;;4.50;;
5807;SDS011;2930;42.678;23.312;2023-01-10T08:37:27;5.57;;;4.53;;
5807;SDS011;2930;42.678;23.312;2023-01-10T08:39:53;8.20;;;3.87;;
5807;SDS011;2930;42.678;23.312;2023-01-10T08:42:20;6.50;;;4.43;;
5807;SDS011;2930;42.678;23.312;2023-01-10T08:44:46;7.83;;;4.90;;
5807;SDS011;2930;42.678;23.312;2023-01-10T08:47:12;7.57;;;4.37;;
5807;SDS011;2930;42.678;23.312;2023-01-10T08:49:39;9.20;;;4.43;;
5807;SDS011;2930;42.678;23.312;2023-01-10T08:52:05;9.13;;;6.10;;
5807;SDS011;2930;42.678;23.312;2023-01-10T08:54:32;7.70;;;6.23;;
5807;SDS011;2930;42.678;23.312;2023-01-10T08:56:58;8.87;;;6.80;;
5807;SDS011;2930;42.678;23.312;2023-01-10T08:59:24;14.73;;;6.57;;
5807;SDS011;2930;42.678;23.312;2023-01-10T09:01:50;7.37;;;5.47;;
5807;SDS011;2930;42.678;23.312;2023-01-10T09:04:16;6.97;;;5.43;;
5807;SDS011;2930;42.678;23.312;2023-01-10T09:06:43;5.17;;;4.67;;
5807;SDS011;2930;42.678;23.312;2023-01-10T09:09:08;9.03;;;6.43;;
5807;SDS011;2930;42.678;23.312;2023-01-10T09:11:34;12.53;;;7.90;;
5807;SDS011;2930;42.678;23.312;2023-01-10T09:14:00;17.37;;;7.97;;
5807;SDS011;2930;42.678;23.312;2023-01-10T09:16:27;15.00;;;8.43;;
5807;SDS011;2930;42.678;23.312;2023-01-10T09:18:52;11.37;;;7.93;;
5807;SDS011;2930;42.678;23.312;2023-01-10T09:21:19;15.70;;;8.50;;
5807;SDS011;2930;42.678;23.312;2023-01-10T09:23:45;14.53;;;8.67;;
5807;SDS011;2930;42.678;23.312;2023-01-10T09:26:11;11.00;;;7.57;;
5807;SDS011;2930;42.678;23.312;2023-01-10T09:28:36;11.93;;;7.57;;
5807;SDS011;2930;42.678;23.312;2023-01-10T09:31:02;11.20;;;7.07;;
5807;SDS011;2930;42.678;23.312;2023-01-10T09:33:28;12.03;;;6.90;;
5807;SDS011;2930;42.678;23.312;2023-01-10T09:35:56;14.40;;;8.17;;
5807;SDS011;2930;42.678;23.312;2023-01-10T09:38:22;10.10;;;7.30;;
5807;SDS011;2930;42.678;23.312;2023-01-10T09:49:24;15.37;;;8.30;;
5807;SDS011;2930;42.678;23.312;2023-01-10T09:52:12;14.97;;;7.90;;
5807;SDS011;2930;42.678;23.312;2023-01-10T09:54:53;16.40;;;9.00;;
5807;SDS011;2930;42.678;23.312;2023-01-10T09:57:21;15.83;;;8.77;;
5807;SDS011;2930;42.678;23.312;2023-01-10T09:59:50;15.57;;;9.13;;
5807;SDS011;2930;42.678;23.312;2023-01-10T10:02:31;17.37;;;9.73;;
5807;SDS011;2930;42.678;23.312;2023-01-10T10:05:06;20.90;;;10.70;;
5807;SDS011;2930;42.678;23.312;2023-01-10T10:07:40;12.87;;;8.50;;
5807;SDS011;2930;42.678;23.312;2023-01-10T10:10:10;18.50;;;9.43;;
5807;SDS011;2930;42.678;23.312;2023-01-10T10:12:43;12.30;;;8.37;;
5807;SDS011;2930;42.678;23.312;2023-01-10T10:26:12;12.80;;;8.13;;
5807;SDS011;2930;42.678;23.312;2023-01-10T10:34:43;15.67;;;8.10;;
5807;SDS011;2930;42.678;23.312;2023-01-10T10:42:36;16.80;;;7.57;;
5807;SDS011;2930;42.678;23.312;2023-01-10T10:45:05;13.20;;;7.30;;
5807;SDS011;2930;42.678;23.312;2023-01-10T10:47:40;13.23;;;7.20;;
5807;SDS011;2930;42.678;23.312;2023-01-10T10:52:39;11.97;;;7.83;;
5807;SDS011;2930;42.678;23.312;2023-01-10T10:55:11;15.97;;;7.83;;
5807;SDS011;2930;42.678;23.312;2023-01-10T10:57:39;11.23;;;7.27;;
5807;SDS011;2930;42.678;23.312;2023-01-10T11:00:06;12.10;;;7.47;;
5807;SDS011;2930;42.678;23.312;2023-01-10T11:02:39;12.40;;;7.27;;
5807;SDS011;2930;42.678;23.312;2023-01-10T11:05:16;14.97;;;8.23;;
5807;SDS011;2930;42.678;23.312;2023-01-10T11:07:52;19.10;;;8.83;;
5807;SDS011;2930;42.678;23.312;2023-01-10T11:10:22;18.03;;;8.93;;
5807;SDS011;2930;42.678;23.312;2023-01-10T11:13:03;12.17;;;8.43;;
5807;SDS011;2930;42.678;23.312;2023-01-10T11:15:42;16.03;;;9.67;;
5807;SDS011;2930;42.678;23.312;2023-01-10T11:18:14;18.30;;;10.07;;
5807;SDS011;2930;42.678;23.312;2023-01-10T11:20:46;16.43;;;9.90;;
5807;SDS011;2930;42.678;23.312;2023-01-10T11:23:24;22.53;;;11.33;;
5807;SDS011;2930;42.678;23.312;2023-01-10T11:32:13;16.23;;;8.73;;
5807;SDS011;2930;42.678;23.312;2023-01-10T11:34:52;13.97;;;7.37;;
5807;SDS011;2930;42.678;23.312;2023-01-10T11:37:26;11.90;;;8.17;;
5807;SDS011;2930;42.678;23.312;2023-01-10T11:40:18;15.03;;;9.17;;
5807;SDS011;2930;42.678;23.312;2023-01-10T11:42:45;11.30;;;7.50;;
5807;SDS011;2930;42.678;23.312;2023-01-10T11:47:56;9.20;;;7.17;;
5807;SDS011;2930;42.678;23.312;2023-01-10T11:50:34;10.37;;;6.73;;
5807;SDS011;2930;42.678;23.312;2023-01-10T11:53:02;16.13;;;7.83;;
5807;SDS011;2930;42.678;23.312;2023-01-10T11:55:30;13.77;;;6.43;;
5807;SDS011;2930;42.678;23.312;2023-01-10T11:58:17;15.70;;;7.37;;
5807;SDS011;2930;42.678;23.312;2023-01-10T12:00:44;17.03;;;8.43;;
5807;SDS011;2930;42.678;23.312;2023-01-10T12:03:24;13.17;;;7.33;;
5807;SDS011;2930;42.678;23.312;2023-01-10T12:06:00;13.40;;;7.97;;
5807;SDS011;2930;42.678;23.312;2023-01-10T12:08:32;10.43;;;7.70;;
5807;SDS011;2930;42.678;23.312;2023-01-10T12:11:06;12.43;;;6.97;;
5807;SDS011;2930;42.678;23.312;2023-01-10T12:13:45;17.37;;;7.17;;
5807;SDS011;2930;42.678;23.312;2023-01-10T12:18:47;11.17;;;6.93;;
5807;SDS011;2930;42.678;23.312;2023-01-10T12:21:15;9.07;;;5.97;;
5807;SDS011;2930;42.678;23.312;2023-01-10T12:23:50;12.53;;;6.30;;
5807;SDS011;2930;42.678;23.312;2023-01-10T12:26:19;7.10;;;5.50;;
5807;SDS011;2930;42.678;23.312;2023-01-10T12:28:47;9.10;;;6.33;;
5807;SDS011;2930;42.678;23.312;2023-01-10T12:31:17;10.43;;;6.33;;
5807;SDS011;2930;42.678;23.312;2023-01-10T12:33:46;10.17;;;6.80;;
5807;SDS011;2930;42.678;23.312;2023-01-10T12:50:17;13.13;;;7.10;;
5807;SDS011;2930;42.678;23.312;2023-01-10T12:52:46;9.53;;;5.63;;
5807;SDS011;2930;42.678;23.312;2023-01-10T12:55:33;10.83;;;6.07;;
5807;SDS011;2930;42.678;23.312;2023-01-10T12:58:12;6.63;;;5.63;;
5807;SDS011;2930;42.678;23.312;2023-01-10T13:00:51;11.43;;;7.63;;
5807;SDS011;2930;42.678;23.312;2023-01-10T13:03:21;7.27;;;6.03;;
5807;SDS011;2930;42.678;23.312;2023-01-10T13:05:51;9.17;;;6.10;;
5807;SDS011;2930;42.678;23.312;2023-01-10T13:08:20;7.60;;;5.00;;
5807;SDS011;2930;42.678;23.312;2023-01-10T13:10:51;5.87;;;5.03;;
5807;SDS011;2930;42.678;23.312;2023-01-10T13:18:46;9.13;;;6.00;;
5807;SDS011;2930;42.678;23.312;2023-01-10T13:21:25;10.20;;;6.27;;
5807;SDS011;2930;42.678;23.312;2023-01-10T13:23:52;9.70;;;6.37;;
5807;SDS011;2930;42.678;23.312;2023-01-10T13:26:22;8.17;;;4.73;;
5807;SDS011;2930;42.678;23.312;2023-01-10T13:31:22;6.93;;;4.77;;
5807;SDS011;2930;42.678;23.312;2023-01-10T13:36:34;6.77;;;4.47;;
5807;SDS011;2930;42.678;23.312;2023-01-10T13:39:06;7.00;;;4.43;;
5807;SDS011;2930;42.678;23.312;2023-01-10T14:06:17;4.00;;;3.60;;
5807;SDS011;2930;42.678;23.312;2023-01-10T14:09:02;5.10;;;3.63;;
5807;SDS011;2930;42.678;23.312;2023-01-10T14:11:29;4.27;;;3.83;;
5807;SDS011;2930;42.678;23.312;2023-01-10T14:17:13;2.97;;;2.60;;
5807;SDS011;2930;42.678;23.312;2023-01-10T14:19:43;1.67;;;1.67;;
5807;SDS011;2930;42.678;23.312;2023-01-10T14:25:18;3.13;;;2.93;;
5807;SDS011;2930;42.678;23.312;2023-01-10T14:27:46;3.37;;;2.10;;
5807;SDS011;2930;42.678;23.312;2023-01-10T14:30:20;2.73;;;2.50;;
5807;SDS011;2930;42.678;23.312;2023-01-10T14:33:03;4.63;;;2.27;;
5807;SDS011;2930;42.678;23.312;2023-01-10T14:35:44;2.00;;;1.90;;
5807;SDS011;2930;42.678;23.312;2023-01-10T14:38:18;3.53;;;2.10;;
5807;SDS011;2930;42.678;23.312;2023-01-10T14:40:50;2.00;;;1.90;;
5807;SDS011;2930;42.678;23.312;2023-01-10T14:43:24;1.47;;;1.37;;
5807;SDS011;2930;42.678;23.312;2023-01-10T14:51:07;0.50;;;0.50;;
5807;SDS011;2930;42.678;23.312;2023-01-10T14:53:33;1.40;;;0.80;;
5807;SDS011;2930;42.678;23.312;2023-01-10T14:56:00;1.13;;;0.50;;
5807;SDS011;2930;42.678;23.312;2023-01-10T14:58:25;1.13;;;0.60;;
5807;SDS011;2930;42.678;23.312;2023-01-10T15:00:52;0.83;;;0.70;;
5807;SDS011;2930;42.678;23.312;2023-01-10T15:03:21;0.40;;;0.40;;
5807;SDS011;2930;42.678;23.312;2023-01-10T15:05:53;0.40;;;0.40;;
5807;SDS011;2930;42.678;23.312;2023-01-10T15:08:22;0.73;;;0.73;;
5807;SDS011;2930;42.678;23.312;2023-01-10T15:10:51;0.83;;;0.60;;
5807;SDS011;2930;42.678;23.312;2023-01-10T15:13:21;0.53;;;0.53;;
5807;SDS011;2930;42.678;23.312;2023-01-10T15:15:53;0.50;;;0.50;;
5807;SDS011;2930;42.678;23.312;2023-01-10T15:21:00;0.30;;;0.30;;
5807;SDS011;2930;42.678;23.312;2023-01-10T15:23:39;0.40;;;0.40;;
5807;SDS011;2930;42.678;23.312;2023-01-10T15:26:08;0.40;;;0.30;;
5807;SDS011;2930;42.678;23.312;2023-01-10T15:28:38;1.13;;;0.50;;
5807;SDS011;2930;42.678;23.312;2023-01-10T15:31:05;0.50;;;0.50;;
5807;SDS011;2930;42.678;23.312;2023-01-10T15:33:33;0.93;;;0.40;;
5807;SDS011;2930;42.678;23.312;2023-01-10T15:36:13;0.70;;;0.70;;
5807;SDS011;2930;42.678;23.312;2023-01-10T15:38:43;0.40;;;0.40;;
5807;SDS011;2930;42.678;23.312;2023-01-10T15:41:14;1.60;;;0.50;;
5807;SDS011;2930;42.678;23.312;2023-01-10T15:43:46;0.40;;;0.40;;
5807;SDS011;2930;42.678;23.312;2023-01-10T15:46:20;0.27;;;0.27;;
5807;SDS011;2930;42.678;23.312;2023-01-10T15:48:54;0.47;;;0.47;;
5807;SDS011;2930;42.678;23.312;2023-01-10T15:51:29;0.30;;;0.30;;
5807;SDS011;2930;42.678;23.312;2023-01-10T15:53:59;0.37;;;0.37;;
5807;SDS011;2930;42.678;23.312;2023-01-10T15:56:32;0.67;;;0.47;;
5807;SDS011;2930;42.678;23.312;2023-01-10T15:58:58;0.30;;;0.30;;
5807;SDS011;2930;42.678;23.312;2023-01-10T16:01:25;0.50;;;0.50;;
5807;SDS011;2930;42.678;23.312;2023-01-10T16:03:58;0.47;;;0.47;;
5807;SDS011;2930;42.678;23.312;2023-01-10T16:06:29;0.20;;;0.20;;
5807;SDS011;2930;42.678;23.312;2023-01-10T16:09:00;0.67;;;0.30;;
5807;SDS011;2930;42.678;23.312;2023-01-10T16:14:20;0.27;;;0.27;;
5807;SDS011;2930;42.678;23.312;2023-01-10T16:16:46;0.77;;;0.30;;
5807;SDS011;2930;42.678;23.312;2023-01-10T16:19:11;0.33;;;0.10;;
5807;SDS011;2930;42.678;23.312;2023-01-10T16:21:45;0.20;;;0.20;;
5807;SDS011;2930;42.678;23.312;2023-01-10T16:24:19;2.00;;;0.33;;
5807;SDS011;2930;42.678;23.312;2023-01-10T16:26:47;0.33;;;0.33;;
5807;SDS011;2930;42.678;23.312;2023-01-10T16:29:13;0.20;;;0.20;;
5807;SDS011;2930;42.678;23.312;2023-01-10T16:31:39;0.30;;;0.30;;
5807;SDS011;2930;42.678;23.312;2023-01-10T16:34:06;0.60;;;0.60;;
5807;SDS011;2930;42.678;23.312;2023-01-10T16:36:32;0.20;;;0.20;;
5807;SDS011;2930;42.678;23.312;2023-01-10T16:39:06;0.30;;;0.30;;
5807;SDS011;2930;42.678;23.312;2023-01-10T16:41:41;0.27;;;0.27;;
5807;SDS011;2930;42.678;23.312;2023-01-10T16:44:26;0.43;;;0.43;;
5807;SDS011;2930;42.678;23.312;2023-01-10T16:46:52;0.30;;;0.30;;
5807;SDS011;2930;42.678;23.312;2023-01-10T16:49:18;0.40;;;0.40;;
5807;SDS011;2930;42.678;23.312;2023-01-10T16:51:44;0.90;;;0.33;;
5807;SDS011;2930;42.678;23.312;2023-01-10T16:54:14;0.60;;;0.60;;
5807;SDS011;2930;42.678;23.312;2023-01-10T16:56:41;0.70;;;0.53;;
5807;SDS011;2930;42.678;23.312;2023-01-10T16:59:09;0.37;;;0.37;;
5807;SDS011;2930;42.678;23.312;2023-01-10T17:01:37;0.40;;;0.40;;
5807;SDS011;2930;42.678;23.312;2023-01-10T17:04:06;2.30;;;0.47;;
5807;SDS011;2930;42.678;23.312;2023-01-10T17:06:33;0.40;;;0.40;;
5807;SDS011;2930;42.678;23.312;2023-01-10T17:08:59;1.73;;;1.10;;
5807;SDS011;2930;42.678;23.312;2023-01-10T17:11:26;0.50;;;0.50;;
5807;SDS011;2930;42.678;23.312;2023-01-10T17:13:54;0.63;;;0.50;;
5807;SDS011;2930;42.678;23.312;2023-01-10T17:16:21;0.40;;;0.40;;
5807;SDS011;2930;42.678;23.312;2023-01-10T17:18:47;0.60;;;0.60;;
5807;SDS011;2930;42.678;23.312;2023-01-10T17:21:13;0.50;;;0.50;;
5807;SDS011;2930;42.678;23.312;2023-01-10T17:23:40;1.23;;;0.90;;
5807;SDS011;2930;42.678;23.312;2023-01-10T17:26:06;0.60;;;0.60;;
5807;SDS011;2930;42.678;23.312;2023-01-10T17:28:32;0.73;;;0.73;;
5807;SDS011;2930;42.678;23.312;2023-01-10T17:30:58;1.00;;;1.00;;
5807;SDS011;2930;42.678;23.312;2023-01-10T17:33:24;0.87;;;0.87;;
5807;SDS011;2930;42.678;23.312;2023-01-10T17:35:51;1.17;;;1.00;;
5807;SDS011;2930;42.678;23.312;2023-01-10T17:38:19;0.80;;;0.80;;